createdAt,value
2019-04-09T00:00:24.491Z,56101.53
2019-04-09T00:03:08.969Z,56125.18
2019-04-09T00:05:38.969Z,56127.23
2019-04-09T00:08:09.781Z,56134.43
2019-04-09T00:10:39.890Z,56112.84
2019-04-09T00:13:10.148Z,56129.29
2019-04-09T00:15:40.255Z,56131.35
2019-04-09T00:18:10.215Z,56150.89
2019-04-09T00:20:40.115Z,56079.94
2019-04-09T00:23:10.197Z,56145.75
2019-04-09T00:25:40.228Z,56122.09
2019-04-09T00:28:10.075Z,56089.19
2019-04-09T00:30:40.040Z,56148.83
2019-04-09T00:33:10.172Z,56113.87
2019-04-09T00:35:40.291Z,56121.07
2019-04-09T00:38:10.467Z,56109.76
2019-04-09T00:40:40.360Z,56127.23
2019-04-09T00:43:10.264Z,56112.84
2019-04-09T00:45:40.130Z,56123.12
2019-04-09T00:48:09.970Z,56142.66
2019-04-09T00:50:39.876Z,56133.41
2019-04-09T00:53:09.810Z,56090.22
2019-04-09T00:55:40.156Z,56119.01
2019-04-09T00:58:10.216Z,56110.79
2019-04-09T01:00:55.089Z,56113.87
2019-04-09T01:03:26.019Z,56133.41
2019-04-09T01:05:55.992Z,56136.49
2019-04-09T01:08:25.946Z,56125.18
2019-04-09T01:10:55.778Z,56120.04
2019-04-09T01:13:26.532Z,56130.32
2019-04-09T01:15:58.242Z,56119.01
2019-04-09T01:18:29.407Z,56107.70
2019-04-09T01:21:00.617Z,56127.23
2019-04-09T01:23:30.798Z,56135.46
2019-04-09T01:26:11.664Z,56134.43
2019-04-09T01:28:53.552Z,56128.27
2019-04-09T01:32:00.916Z,56119.01
2019-04-09T01:34:39.228Z,56167.34
2019-04-09T01:37:17.645Z,56164.25
2019-04-09T01:40:05.639Z,56093.30
2019-04-09T01:43:12.880Z,56123.12
2019-04-09T01:46:04.832Z,56139.57
2019-04-09T01:48:44.763Z,56123.12
2019-04-09T01:51:28.975Z,56130.32
2019-04-09T01:54:23.903Z,56161.17
2019-04-09T01:57:21.972Z,56119.01
2019-04-09T02:00:10.224Z,56147.80
2019-04-09T02:02:59.023Z,56137.52
2019-04-09T02:05:56.876Z,56132.38
2019-04-09T02:08:36.150Z,56153.97
2019-04-09T02:11:15.804Z,56134.43
2019-04-09T02:13:57.205Z,56135.46
2019-04-09T02:16:45.456Z,56109.76
2019-04-09T02:22:42.765Z,56125.18
2019-04-09T02:25:28.719Z,56160.14
2019-04-09T02:28:17.247Z,56114.90
2019-04-09T02:31:10.222Z,56141.63
2019-04-09T02:34:04.651Z,56152.94
2019-04-09T02:36:58.176Z,56133.41
2019-04-09T02:39:38.318Z,56121.07
2019-04-09T02:42:26.678Z,56130.32
2019-04-09T02:45:06.383Z,56130.32
2019-04-09T02:47:53.996Z,56146.77
2019-04-09T02:50:35.339Z,56158.09
2019-04-09T02:53:14.494Z,56139.57
2019-04-09T02:56:09.677Z,56139.57
2019-04-09T02:58:57.427Z,56116.95
2019-04-09T03:01:38.719Z,56167.34
2019-04-09T03:04:27.531Z,56114.90
2019-04-09T03:07:09.652Z,56133.41
2019-04-09T03:09:47.675Z,56114.90
2019-04-09T03:12:35.742Z,56126.21
2019-04-09T03:15:15.691Z,56161.17
2019-04-09T03:18:11.014Z,56146.77
2019-04-09T03:21:03.465Z,56124.15
2019-04-09T03:23:51.818Z,56144.71
2019-04-09T03:26:47.576Z,56130.32
2019-04-09T03:29:26.794Z,56130.32
2019-04-09T03:32:05.526Z,56143.69
2019-04-09T03:34:45.829Z,56107.70
2019-04-09T03:37:26.605Z,56150.89
2019-04-09T03:40:07.015Z,56152.94
2019-04-09T03:42:54.004Z,56141.63
2019-04-09T03:45:42.929Z,56158.09
2019-04-09T03:48:20.291Z,56142.66
2019-04-09T03:51:09.567Z,56143.69
2019-04-09T03:54:04.313Z,56125.18
2019-04-09T03:56:52.351Z,56159.11
2019-04-09T03:59:41.150Z,56147.80
2019-04-09T04:02:16.681Z,56124.15
2019-04-09T04:04:52.998Z,56137.52
2019-04-09T04:08:00.431Z,56122.09
2019-04-09T04:10:43.111Z,56168.37
2019-04-09T04:13:28.969Z,56125.18
2019-04-09T04:16:36.538Z,56147.80
2019-04-09T04:19:24.257Z,56138.55
2019-04-09T04:22:05.192Z,56149.86
2019-04-09T04:24:53.397Z,56116.95
2019-04-09T04:28:10.614Z,56140.61
2019-04-09T04:31:06.910Z,56116.95
2019-04-09T04:34:04.159Z,56127.23
2019-04-09T04:36:43.957Z,56153.97
2019-04-09T04:39:26.475Z,56139.57
2019-04-09T04:42:14.254Z,56145.75
2019-04-09T04:45:05.914Z,56143.69
2019-04-09T04:47:44.514Z,56165.28
2019-04-09T04:50:28.287Z,56143.69
2019-04-09T04:53:06.438Z,56149.86
2019-04-09T04:55:54.367Z,56106.67
2019-04-09T04:58:55.897Z,56112.84
2019-04-09T05:01:54.848Z,56136.49
2019-04-09T05:04:44.076Z,56169.39
2019-04-09T05:07:36.422Z,56137.52
2019-04-09T05:10:25.642Z,56119.01
2019-04-09T05:13:30.482Z,56151.91
2019-04-09T05:16:14.415Z,56165.28
2019-04-09T05:18:53.310Z,56113.87
2019-04-09T05:21:32.969Z,56119.01
2019-04-09T05:24:22.757Z,56130.32
2019-04-09T05:27:10.674Z,56134.43
2019-04-09T05:30:00.322Z,56167.34
2019-04-09T05:32:50.025Z,56119.01
2019-04-09T05:35:37.808Z,56179.68
2019-04-09T05:38:15.598Z,56164.25
2019-04-09T05:41:01.434Z,56134.43
2019-04-09T05:43:54.529Z,56160.14
2019-04-09T05:46:30.422Z,56133.41
2019-04-09T05:49:20.756Z,56145.75
2019-04-09T05:52:01.045Z,56123.12
2019-04-09T05:54:41.939Z,56175.56
2019-04-09T05:57:24.183Z,56130.32
2019-04-09T06:00:22.494Z,56136.49
2019-04-09T06:03:01.282Z,56127.23
2019-04-09T06:05:49.166Z,56141.63
2019-04-09T06:08:31.724Z,56131.35
2019-04-09T06:11:03.269Z,56140.61
2019-04-09T06:13:33.597Z,56153.97
2019-04-09T06:16:04.464Z,56132.38
2019-04-09T06:18:34.363Z,56133.41
2019-04-09T06:21:05.807Z,56149.86
2019-04-09T06:23:36.281Z,56121.07
2019-04-09T06:26:07.334Z,56131.35
2019-04-09T06:28:38.626Z,56134.43
2019-04-09T06:31:08.616Z,56093.30
2019-04-09T06:34:09.511Z,56130.32
2019-04-09T06:36:48.237Z,56134.43
2019-04-09T06:39:37.189Z,56119.01
2019-04-09T06:42:15.110Z,56127.23
2019-04-09T06:45:03.713Z,56156.03
2019-04-09T06:47:47.421Z,56144.71
2019-04-09T06:50:43.163Z,56145.75
2019-04-09T06:53:23.302Z,56119.01
2019-04-09T06:56:13.519Z,56151.91
2019-04-09T06:59:02.992Z,56115.93
2019-04-09T07:02:07.331Z,56120.04
2019-04-09T07:04:55.015Z,56101.53
2019-04-09T07:07:42.761Z,56127.23
2019-04-09T07:10:38.316Z,56133.41
2019-04-09T07:13:33.704Z,56134.43
2019-04-09T07:16:11.581Z,56129.29
2019-04-09T07:19:08.357Z,56112.84
2019-04-09T07:21:57.034Z,56136.49
2019-04-09T07:24:36.914Z,56102.56
2019-04-09T07:27:43.238Z,56126.21
2019-04-09T07:30:26.451Z,56147.80
2019-04-09T07:33:18.944Z,56103.59
2019-04-09T07:36:14.750Z,56097.42
2019-04-09T07:39:14.568Z,56117.98
2019-04-09T07:41:56.466Z,56117.98
2019-04-09T07:45:05.397Z,56094.33
2019-04-09T07:47:56.771Z,56099.47
2019-04-09T07:50:41.328Z,56107.70
2019-04-09T07:53:15.707Z,56083.02
2019-04-09T07:55:59.497Z,56072.74
2019-04-09T07:58:47.226Z,56083.02
2019-04-09T08:01:48.218Z,56089.19
2019-04-09T08:04:56.324Z,56088.16
2019-04-09T08:07:45.538Z,56079.94
2019-04-09T08:10:24.131Z,56104.62
2019-04-09T08:13:12.912Z,56082.00
2019-04-09T08:16:06.271Z,56097.42
2019-04-09T08:18:45.823Z,56092.28
2019-04-09T08:21:36.586Z,56093.30
2019-04-09T08:24:22.724Z,56101.53
2019-04-09T08:27:18.803Z,56086.11
2019-04-09T08:30:23.775Z,56082.00
2019-04-09T08:33:22.629Z,56098.45
2019-04-09T08:36:04.041Z,56072.74
2019-04-09T08:39:01.395Z,56069.65
2019-04-09T08:41:35.802Z,56072.74
2019-04-09T08:44:18.788Z,56093.30
2019-04-09T08:47:12.751Z,56069.65
2019-04-09T08:49:56.324Z,56095.36
2019-04-09T08:52:44.292Z,56058.34
2019-04-09T08:55:17.868Z,56087.14
2019-04-09T08:57:50.939Z,56057.32
2019-04-09T09:01:18.960Z,56075.82
2019-04-09T09:03:23.449Z,56077.88
2019-04-09T09:06:13.349Z,56094.33
2019-04-09T09:09:01.331Z,56040.86
2019-04-09T09:11:48.335Z,56078.91
2019-04-09T09:14:43.666Z,56097.42
2019-04-09T09:17:37.699Z,56063.48
2019-04-09T09:20:24.690Z,56063.48
2019-04-09T09:23:05.977Z,56082.00
2019-04-09T09:25:42.864Z,55996.65
2019-04-09T09:28:20.542Z,55993.57
2019-04-09T09:31:10.240Z,55963.75
2019-04-09T09:33:52.078Z,55961.69
2019-04-09T09:36:58.244Z,55965.80
2019-04-09T09:40:03.025Z,55941.13
2019-04-09T09:42:56.302Z,55916.45
2019-04-09T09:45:44.207Z,55985.34
2019-04-09T09:48:31.525Z,55967.86
2019-04-09T09:51:24.278Z,55951.41
2019-04-09T09:54:16.704Z,55999.73
2019-04-09T09:56:58.584Z,55970.95
2019-04-09T10:00:00.389Z,55973.00
2019-04-09T10:02:45.147Z,55983.28
2019-04-09T10:05:21.872Z,55995.62
2019-04-09T10:08:04.673Z,56006.93
2019-04-09T10:10:52.689Z,56004.87
2019-04-09T10:13:32.144Z,56023.38
2019-04-09T10:16:14.583Z,56007.96
2019-04-09T10:19:11.364Z,56002.82
2019-04-09T10:22:01.617Z,55977.11
2019-04-09T10:24:41.299Z,55982.25
2019-04-09T10:27:30.559Z,56005.90
2019-04-09T10:30:18.287Z,56018.24
2019-04-09T10:33:10.587Z,56007.96
2019-04-09T10:35:47.347Z,55990.48
2019-04-09T10:38:35.852Z,56014.13
2019-04-09T10:41:20.688Z,56020.30
2019-04-09T10:44:03.534Z,55989.45
2019-04-09T10:47:11.429Z,55986.37
2019-04-09T10:49:55.829Z,56005.90
2019-04-09T10:52:51.555Z,56017.21
2019-04-09T10:55:43.727Z,56020.30
2019-04-09T10:58:32.303Z,56016.19
2019-04-09T11:01:31.480Z,56006.93
2019-04-09T11:04:09.817Z,56034.70
2019-04-09T11:07:00.584Z,56011.05
2019-04-09T11:09:47.045Z,56024.41
2019-04-09T11:12:35.114Z,55996.65
2019-04-09T11:15:23.393Z,55997.68
2019-04-09T11:18:18.485Z,56025.44
2019-04-09T11:21:07.802Z,55989.45
2019-04-09T11:24:00.030Z,56030.58
2019-04-09T11:26:56.009Z,56055.26
2019-04-09T11:29:54.676Z,56061.43
2019-04-09T11:32:42.966Z,56069.65
2019-04-09T11:35:31.146Z,56043.95
2019-04-09T11:38:11.301Z,56014.13
2019-04-09T11:41:07.988Z,56041.89
2019-04-09T11:43:44.570Z,56055.26
2019-04-09T11:46:34.680Z,56024.41
2019-04-09T11:49:22.629Z,56046.00
2019-04-09T11:52:14.682Z,56028.52
2019-04-09T11:55:07.014Z,56067.60
2019-04-09T11:58:08.899Z,56049.09
2019-04-09T12:00:50.915Z,56018.24
2019-04-09T12:03:58.991Z,56002.82
2019-04-09T12:06:49.397Z,56056.29
2019-04-09T12:09:29.810Z,56071.71
2019-04-09T12:12:13.625Z,56056.29
2019-04-09T12:15:08.711Z,56051.14
2019-04-09T12:17:51.366Z,56017.21
2019-04-09T12:20:32.467Z,56027.50
2019-04-09T12:23:08.005Z,56027.50
2019-04-09T12:25:51.131Z,56033.67
2019-04-09T12:28:46.114Z,56036.75
2019-04-09T12:31:41.423Z,56041.89
2019-04-09T12:34:36.361Z,56002.82
2019-04-09T12:37:25.766Z,56039.84
2019-04-09T12:40:11.052Z,56025.44
2019-04-09T12:43:00.755Z,56018.24
2019-04-09T12:45:41.292Z,56003.85
2019-04-09T12:48:28.537Z,56015.16
2019-04-09T12:51:18.682Z,56000.76
2019-04-09T12:53:55.342Z,56030.58
2019-04-09T12:56:43.159Z,56032.64
2019-04-09T12:59:31.563Z,56002.82
2019-04-09T13:02:34.955Z,55997.68
2019-04-09T13:05:11.072Z,55985.34
2019-04-09T13:07:58.600Z,55999.73
2019-04-09T13:10:47.749Z,55982.25
2019-04-09T13:13:28.777Z,56011.05
2019-04-09T13:16:37.040Z,55981.23
2019-04-09T13:19:21.586Z,56006.93
2019-04-09T13:22:25.991Z,55986.37
2019-04-09T13:25:03.470Z,55966.83
2019-04-09T13:27:45.438Z,55954.49
2019-04-09T13:30:31.664Z,56005.90
2019-04-09T13:33:21.144Z,55973.00
2019-04-09T13:36:14.577Z,55995.62
2019-04-09T13:39:06.449Z,55989.45
2019-04-09T13:41:46.828Z,56012.07
2019-04-09T13:44:35.479Z,55961.69
2019-04-09T13:47:18.063Z,55991.51
2019-04-09T13:50:10.686Z,55997.68
2019-04-09T13:52:40.920Z,55973.00
2019-04-09T13:55:14.355Z,56007.96
2019-04-09T13:57:45.401Z,56023.38
2019-04-09T14:00:16.885Z,56007.96
2019-04-09T14:03:17.899Z,56018.24
2019-04-09T14:05:34.651Z,55987.40
2019-04-09T14:08:04.747Z,55992.54
2019-04-09T14:10:46.882Z,56004.87
2019-04-09T14:13:07.648Z,56003.85
2019-04-09T14:15:38.506Z,55977.11
2019-04-09T14:18:08.394Z,56013.10
2019-04-09T14:20:38.566Z,55994.59
2019-04-09T14:23:08.448Z,56018.24
2019-04-09T14:25:38.760Z,55989.45
2019-04-09T14:28:08.583Z,56000.76
2019-04-09T14:30:38.712Z,55993.57
2019-04-09T14:33:11.337Z,56014.13
2019-04-09T14:35:41.967Z,56017.21
2019-04-09T14:38:11.825Z,55999.73
2019-04-09T14:40:41.863Z,56022.36
2019-04-09T14:43:12.011Z,56022.36
2019-04-09T14:45:42.684Z,55997.68
2019-04-09T14:48:13.030Z,56007.96
2019-04-09T14:50:44.151Z,56032.64
2019-04-09T14:53:14.499Z,56059.37
2019-04-09T14:55:44.934Z,56028.52
2019-04-09T14:58:15.181Z,56019.27
2019-04-09T15:00:45.612Z,56039.84
2019-04-09T15:03:24.194Z,56012.07
2019-04-09T15:05:47.682Z,55977.11
2019-04-09T15:08:17.897Z,56038.81
2019-04-09T15:10:48.853Z,56028.52
2019-04-09T15:13:19.700Z,56036.75
2019-04-09T15:15:49.578Z,56024.41
2019-04-09T15:18:19.673Z,56022.36
2019-04-09T15:21:08.398Z,56027.50
2019-04-09T15:23:38.791Z,56018.24
2019-04-09T15:26:09.678Z,56042.92
2019-04-09T15:28:39.915Z,56034.70
2019-04-09T15:31:10.648Z,56028.52
2019-04-09T15:33:41.078Z,56022.36
2019-04-09T15:36:11.540Z,56039.84
2019-04-09T15:38:41.502Z,56038.81
2019-04-09T15:41:11.373Z,56051.14
2019-04-09T15:43:41.219Z,56055.26
2019-04-09T15:46:11.148Z,56012.07
2019-04-09T15:48:41.219Z,56041.89
2019-04-09T15:51:11.101Z,56049.09
2019-04-09T15:53:41.294Z,56019.27
2019-04-09T15:56:12.626Z,56042.92
2019-04-09T15:58:43.049Z,56018.24
2019-04-09T16:01:13.639Z,56036.75
2019-04-09T16:03:52.551Z,56042.92
2019-04-09T16:06:16.237Z,56049.09
2019-04-09T16:08:46.148Z,56033.67
2019-04-09T16:11:15.984Z,56037.78
2019-04-09T16:13:46.883Z,56052.18
2019-04-09T16:16:16.999Z,56015.16
2019-04-09T16:18:48.028Z,56016.19
2019-04-09T16:21:19.213Z,56041.89
2019-04-09T16:23:49.229Z,56056.29
2019-04-09T16:26:20.307Z,56040.86
2019-04-09T16:28:50.284Z,56055.26
2019-04-09T16:31:20.331Z,56066.57
2019-04-09T16:33:59.111Z,56079.94
2019-04-09T16:36:22.281Z,56046.00
2019-04-09T16:38:52.146Z,56036.75
2019-04-09T16:41:22.040Z,56020.30
2019-04-09T16:43:51.893Z,56059.37
2019-04-09T16:46:22.190Z,56057.32
2019-04-09T16:48:52.582Z,56051.14
2019-04-09T16:51:22.594Z,56070.68
2019-04-09T16:53:53.497Z,56066.57
2019-04-09T16:56:23.558Z,56085.08
2019-04-09T16:58:53.454Z,56074.80
2019-04-09T17:01:23.638Z,56064.51
2019-04-09T17:03:54.421Z,56070.68
2019-04-09T17:06:24.723Z,56080.96
2019-04-09T17:08:54.581Z,56047.03
2019-04-09T17:11:24.706Z,56080.96
2019-04-09T17:13:55.269Z,56077.88
2019-04-09T17:16:26.531Z,56056.29
2019-04-09T17:18:56.938Z,56059.37
2019-04-09T17:21:27.602Z,56079.94
2019-04-09T17:23:58.166Z,56067.60
2019-04-09T17:26:29.630Z,56060.40
2019-04-09T17:29:00.262Z,56077.88
2019-04-09T17:31:30.257Z,56103.59
2019-04-09T17:34:00.128Z,56088.16
2019-04-09T17:36:33.043Z,56065.54
2019-04-09T17:39:01.578Z,56071.71
2019-04-09T17:41:32.600Z,56087.14
2019-04-09T17:44:02.638Z,56088.16
2019-04-09T17:46:32.678Z,56089.19
2019-04-09T17:49:02.783Z,56085.08
2019-04-09T17:51:33.327Z,56065.54
2019-04-09T17:54:03.568Z,56094.33
2019-04-09T17:56:34.204Z,56080.96
2019-04-09T17:59:04.779Z,56064.51
2019-04-09T18:01:35.492Z,56071.71
2019-04-09T18:04:06.204Z,56089.19
2019-04-09T18:06:36.671Z,56094.33
2019-04-09T18:09:08.326Z,56094.33
2019-04-09T18:11:38.370Z,56072.74
2019-04-09T18:14:08.722Z,56090.22
2019-04-09T18:16:38.836Z,56040.86
2019-04-09T18:19:12.777Z,56085.08
2019-04-09T18:21:43.217Z,56059.37
2019-04-09T18:24:13.280Z,56086.11
2019-04-09T18:26:43.120Z,56108.73
2019-04-09T18:29:13.349Z,56065.54
2019-04-09T18:31:43.515Z,56067.60
2019-04-09T18:34:13.792Z,56083.02
2019-04-09T18:36:44.923Z,56098.45
2019-04-09T18:39:15.214Z,56105.64
2019-04-09T18:41:46.268Z,56086.11
2019-04-09T18:44:16.645Z,56094.33
2019-04-09T18:46:47.319Z,56079.94
2019-04-09T18:49:17.413Z,56072.74
2019-04-09T18:51:47.300Z,56051.14
2019-04-09T18:54:17.817Z,56072.74
2019-04-09T18:56:48.344Z,56089.19
2019-04-09T18:59:19.129Z,56110.79
2019-04-09T19:01:49.255Z,56094.33
2019-04-09T19:04:20.391Z,56101.53
2019-04-09T19:06:51.116Z,56098.45
2019-04-09T19:09:22.138Z,56076.85
2019-04-09T19:11:52.156Z,56086.11
2019-04-09T19:14:22.041Z,56072.74
2019-04-09T19:16:52.799Z,56077.88
2019-04-09T19:19:23.036Z,56096.39
2019-04-09T19:21:53.469Z,56120.04
2019-04-09T19:24:24.726Z,56063.48
2019-04-09T19:26:54.972Z,56108.73
2019-04-09T19:29:24.914Z,56092.28
2019-04-09T19:31:55.799Z,56112.84
2019-04-09T19:34:25.739Z,56110.79
2019-04-09T19:36:56.825Z,56084.05
2019-04-09T19:39:28.126Z,56106.67
2019-04-09T19:42:08.989Z,56117.98
2019-04-09T19:44:29.855Z,56133.41
2019-04-09T19:47:00.793Z,56100.50
2019-04-09T19:49:30.895Z,56088.16
2019-04-09T19:52:02.007Z,56112.84
2019-04-09T19:54:33.569Z,56106.67
2019-04-09T19:57:03.915Z,56094.33
2019-04-09T19:59:34.847Z,56090.22
2019-04-09T20:02:06.205Z,56110.79
2019-04-09T20:04:37.104Z,56084.05
2019-04-09T20:07:07.160Z,56110.79
2019-04-09T20:09:37.858Z,56110.79
2019-04-09T20:12:09.022Z,56121.07
2019-04-09T20:14:39.139Z,56125.18
2019-04-09T20:17:10.092Z,56133.41
2019-04-09T20:19:41.144Z,56128.27
2019-04-09T20:22:11.139Z,56129.29
2019-04-09T20:24:42.708Z,56129.29
2019-04-09T20:27:13.298Z,56108.73
2019-04-09T20:29:43.515Z,56119.01
2019-04-09T20:32:14.583Z,56082.00
2019-04-09T20:34:58.566Z,56106.67
2019-04-09T20:37:16.735Z,56092.28
2019-04-09T20:39:47.529Z,56112.84
2019-04-09T20:42:17.462Z,56123.12
2019-04-09T20:44:47.385Z,56132.38
2019-04-09T20:47:18.340Z,56064.51
2019-04-09T20:49:48.802Z,56111.81
2019-04-09T20:52:19.477Z,56090.22
2019-04-09T20:54:55.444Z,56111.81
2019-04-09T20:57:26.038Z,56108.73
2019-04-09T21:00:12.264Z,56096.39
2019-04-09T21:03:09.020Z,56094.33
2019-04-09T21:05:51.158Z,56126.21
2019-04-09T21:08:11.065Z,56084.05
2019-04-09T21:10:41.372Z,56123.12
2019-04-09T21:13:11.547Z,56091.25
2019-04-09T21:15:41.406Z,56131.35
2019-04-09T21:18:11.287Z,56147.80
2019-04-09T21:20:41.395Z,56097.42
2019-04-09T21:23:11.619Z,56126.21
2019-04-09T21:25:41.719Z,56084.05
2019-04-09T21:28:11.608Z,56104.62
2019-04-09T21:30:41.489Z,56096.39
2019-04-09T21:33:11.366Z,56147.80
2019-04-09T21:35:41.595Z,56124.15
2019-04-09T21:38:11.925Z,56139.57
2019-04-09T21:40:42.227Z,56117.98
2019-04-09T21:43:12.547Z,56123.12
2019-04-09T21:45:43.794Z,56132.38
2019-04-09T21:48:14.112Z,56137.52
2019-04-09T21:50:44.736Z,56130.32
2019-04-09T21:53:14.775Z,56123.12
2019-04-09T21:55:44.657Z,56106.67
2019-04-09T21:58:16.075Z,56141.63
2019-04-09T22:00:52.004Z,56180.71
2019-04-09T22:03:28.513Z,56159.11
2019-04-09T22:05:58.849Z,56119.01
2019-04-09T22:08:30.148Z,56131.35
2019-04-09T22:11:00.208Z,56090.22
2019-04-09T22:13:30.075Z,56138.55
2019-04-09T22:16:00.319Z,56139.57
2019-04-09T22:18:30.244Z,56102.56
2019-04-09T22:21:01.568Z,56096.39
2019-04-09T22:23:41.246Z,56124.15
2019-04-09T22:26:03.253Z,56105.64
2019-04-09T22:28:33.141Z,56120.04
2019-04-09T22:31:03.368Z,56134.43
2019-04-09T22:33:34.846Z,56145.75
2019-04-09T22:36:04.890Z,56138.55
2019-04-09T22:38:35.542Z,56127.23
2019-04-09T22:41:05.702Z,56104.62
2019-04-09T22:43:35.583Z,56111.81
2019-04-09T22:46:06.243Z,56110.79
2019-04-09T22:48:36.869Z,56100.50
2019-04-09T22:51:06.738Z,56147.80
2019-04-09T22:53:36.685Z,56110.79
2019-04-09T22:56:06.958Z,56119.01
2019-04-09T22:58:37.176Z,56131.35
2019-04-09T23:01:26.579Z,56114.90
2019-04-09T23:04:10.593Z,56116.95
2019-04-09T23:07:12.238Z,56135.46
2019-04-09T23:09:51.239Z,56141.63
2019-04-09T23:12:43.794Z,56148.83
2019-04-09T23:15:29.514Z,56158.09
2019-04-09T23:18:00.247Z,56143.69
2019-04-09T23:20:30.503Z,56151.91
2019-04-09T23:23:00.740Z,56156.03
2019-04-09T23:25:30.920Z,56129.29
2019-04-09T23:28:01.244Z,56160.14
2019-04-09T23:30:32.160Z,56097.42
2019-04-09T23:33:02.475Z,56125.18
2019-04-09T23:35:34.730Z,56102.56
2019-04-09T23:38:05.259Z,56140.61
2019-04-09T23:40:35.824Z,56125.18
2019-04-09T23:43:06.084Z,56105.64
2019-04-09T23:45:36.850Z,56133.41
2019-04-09T23:48:08.096Z,56151.91
2019-04-09T23:50:38.280Z,56127.23
2019-04-09T23:53:08.635Z,56145.75
2019-04-09T23:55:38.866Z,56129.29
2019-04-09T23:58:09.283Z,56123.12
